ACA35 KBGR-CYAM
Flight info
| Callsign | ACA35 |
|---|---|
| Flight time | N/A |
| Altitude | 36000 |
| Route | BGR J49 ALB J190 KODEY Q140 PEPLA Q917 SSM |
| Aircraft | A321/M-SDE3FGHIRWY/LB1 |
Departure
| Time | 2026-05-01 10:28 |
|---|---|
| Airport | Bangor International Airport (KBGR) |
Arrival
| Time | N/A |
|---|---|
| Airport | Sault Ste Marie Airport (CYAM) |
| Time | Latitude | Longitude | Altitude | Speed | Heading |
|---|---|---|---|---|---|
| 2026-05-01 09:42 | 44.80564 | -68.81370 | 163 ft | 0 kts | 291° |
| 2026-05-01 10:16 | 44.80564 | -68.81367 | 163 ft | 2 kts | 291° |
| 2026-05-01 10:17 | 44.80557 | -68.81344 | 162 ft | 3 kts | 273° |
| 2026-05-01 10:17 | 44.80562 | -68.81317 | 162 ft | 0 kts | 204° |
| 2026-05-01 10:20 | 44.80562 | -68.81318 | 162 ft | 0 kts | 204° |
| 2026-05-01 10:20 | 44.80518 | -68.81345 | 162 ft | 14 kts | 204° |
| 2026-05-01 10:21 | 44.80408 | -68.81411 | 160 ft | 21 kts | 200° |
| 2026-05-01 10:21 | 44.80119 | -68.81262 | 160 ft | 15 kts | 169° |
| 2026-05-01 10:21 | 44.80060 | -68.81211 | 160 ft | 15 kts | 138° |
| 2026-05-01 10:22 | 44.79939 | -68.81052 | 168 ft | 9 kts | 137° |
| 2026-05-01 10:22 | 44.79891 | -68.81020 | 172 ft | 0 kts | 177° |
| 2026-05-01 10:23 | 44.79882 | -68.81020 | 172 ft | 4 kts | 178° |
| 2026-05-01 10:23 | 44.79751 | -68.81111 | 176 ft | 12 kts | 233° |
| 2026-05-01 10:23 | 44.79734 | -68.81151 | 177 ft | 0 kts | 241° |
| 2026-05-01 10:25 | 44.79717 | -68.81286 | 175 ft | 17 kts | 283° |
| 2026-05-01 10:25 | 44.79790 | -68.81435 | 168 ft | 0 kts | 314° |
| 2026-05-01 10:27 | 44.80151 | -68.81959 | 170 ft | 115 kts | 314° |
| 2026-05-01 10:27 | 44.81860 | -68.84391 | 413 ft | 221 kts | 315° |
| 2026-05-01 10:28 | 44.83003 | -68.85997 | 820 ft | 225 kts | 312° |
| 2026-05-01 10:28 | 44.83191 | -68.89574 | 1306 ft | 204 kts | 232° |
| 2026-05-01 10:28 | 44.82121 | -68.90830 | 1491 ft | 198 kts | 229° |
| 2026-05-01 10:29 | 44.80849 | -68.94098 | 1526 ft | 189 kts | 255° |
| 2026-05-01 10:29 | 44.80363 | -68.95823 | 1451 ft | 188 kts | 254° |
| 2026-05-01 10:30 | 44.79210 | -68.99370 | 1110 ft | 225 kts | 248° |
| 2026-05-01 10:30 | 44.77714 | -69.03646 | 1715 ft | 250 kts | 248° |
| 2026-05-01 10:31 | 44.76086 | -69.08035 | 2285 ft | 256 kts | 246° |
| 2026-05-01 10:31 | 44.74406 | -69.12391 | 2847 ft | 255 kts | 246° |
| 2026-05-01 10:32 | 44.72680 | -69.16791 | 3415 ft | 258 kts | 245° |
| 2026-05-01 10:32 | 44.71807 | -69.19007 | 3689 ft | 260 kts | 244° |
| 2026-05-01 10:32 | 44.70046 | -69.23474 | 4282 ft | 262 kts | 243° |
| 2026-05-01 10:33 | 44.68267 | -69.27982 | 4843 ft | 264 kts | 242° |
| 2026-05-01 10:33 | 44.66477 | -69.32503 | 5423 ft | 265 kts | 242° |
| 2026-05-01 10:34 | 44.65579 | -69.34769 | 5708 ft | 266 kts | 242° |
| 2026-05-01 10:34 | 44.64680 | -69.37041 | 5999 ft | 266 kts | 242° |
| 2026-05-01 10:34 | 44.63793 | -69.39279 | 6273 ft | 266 kts | 242° |
| 2026-05-01 10:35 | 44.61995 | -69.43822 | 6816 ft | 267 kts | 242° |
| 2026-05-01 10:35 | 44.61090 | -69.46106 | 7092 ft | 268 kts | 242° |
| 2026-05-01 10:35 | 44.60181 | -69.48390 | 7371 ft | 269 kts | 242° |
| 2026-05-01 10:35 | 44.59270 | -69.50681 | 7651 ft | 269 kts | 242° |
| 2026-05-01 10:36 | 44.57441 | -69.55285 | 8217 ft | 271 kts | 241° |
| 2026-05-01 10:36 | 44.56518 | -69.57593 | 8507 ft | 272 kts | 241° |
| 2026-05-01 10:36 | 44.55593 | -69.59907 | 8785 ft | 273 kts | 241° |
| 2026-05-01 10:37 | 44.54663 | -69.62232 | 9085 ft | 274 kts | 241° |
| 2026-05-01 10:37 | 44.52793 | -69.66905 | 9674 ft | 277 kts | 241° |
| 2026-05-01 10:37 | 44.51850 | -69.69258 | 9947 ft | 277 kts | 241° |
| 2026-05-01 10:38 | 44.50884 | -69.71668 | 10224 ft | 294 kts | 240° |
| 2026-05-01 10:38 | 44.49847 | -69.74253 | 10516 ft | 314 kts | 240° |
| 2026-05-01 10:38 | 44.48737 | -69.77011 | 10804 ft | 333 kts | 240° |
| 2026-05-01 10:38 | 44.47575 | -69.79898 | 11091 ft | 345 kts | 240° |
| 2026-05-01 10:39 | 44.46405 | -69.82801 | 11366 ft | 348 kts | 240° |
| 2026-05-01 10:39 | 44.45209 | -69.85766 | 11654 ft | 350 kts | 240° |
| 2026-05-01 10:39 | 44.44014 | -69.88736 | 11929 ft | 351 kts | 240° |
| 2026-05-01 10:39 | 44.42813 | -69.91722 | 12212 ft | 353 kts | 240° |
| 2026-05-01 10:40 | 44.41606 | -69.94714 | 12501 ft | 354 kts | 239° |
| 2026-05-01 10:40 | 44.40392 | -69.97716 | 12795 ft | 355 kts | 239° |
| 2026-05-01 10:40 | 44.39172 | -70.00728 | 13095 ft | 356 kts | 239° |
| 2026-05-01 10:40 | 44.37952 | -70.03739 | 13397 ft | 357 kts | 239° |
| 2026-05-01 10:41 | 44.36726 | -70.06762 | 13689 ft | 358 kts | 239° |
| 2026-05-01 10:41 | 44.35492 | -70.09796 | 13958 ft | 359 kts | 239° |
| 2026-05-01 10:41 | 44.33015 | -70.15872 | 14493 ft | 361 kts | 239° |
| 2026-05-01 10:42 | 44.31772 | -70.18922 | 14765 ft | 362 kts | 238° |
| 2026-05-01 10:42 | 44.30527 | -70.21977 | 15041 ft | 363 kts | 238° |
| 2026-05-01 10:42 | 44.29274 | -70.25046 | 15347 ft | 365 kts | 238° |
| 2026-05-01 10:42 | 44.28012 | -70.28136 | 15629 ft | 367 kts | 238° |
| 2026-05-01 10:43 | 44.26745 | -70.31234 | 15912 ft | 368 kts | 238° |
| 2026-05-01 10:43 | 44.25470 | -70.34340 | 16197 ft | 369 kts | 238° |